createdAt,value
2022-12-01T00:01:06.820Z,16.60
2022-12-01T00:03:33.941Z,16.60
2022-12-01T00:06:01.215Z,16.70
2022-12-01T00:08:28.134Z,16.60
2022-12-01T00:10:54.824Z,16.60
2022-12-01T00:13:21.770Z,16.60
2022-12-01T00:15:48.425Z,16.70
2022-12-01T00:18:15.101Z,16.60
2022-12-01T00:20:41.759Z,16.60
2022-12-01T00:23:08.527Z,16.60
2022-12-01T00:25:35.173Z,16.60
2022-12-01T00:28:01.931Z,16.60
2022-12-01T00:30:28.613Z,16.60
2022-12-01T00:32:55.287Z,16.60
2022-12-01T00:35:21.988Z,16.60
2022-12-01T00:37:48.641Z,16.60
2022-12-01T00:40:15.304Z,16.60
2022-12-01T00:42:42.008Z,16.60
2022-12-01T00:45:09.013Z,16.60
2022-12-01T00:47:35.787Z,16.60
2022-12-01T00:50:02.900Z,16.60
2022-12-01T00:52:29.564Z,16.60
2022-12-01T00:54:56.262Z,16.60
2022-12-01T00:57:23.001Z,16.70
2022-12-01T00:59:49.993Z,16.70
2022-12-01T01:02:16.974Z,16.60
2022-12-01T01:04:43.907Z,16.60
2022-12-01T01:07:10.620Z,16.60
2022-12-01T01:09:37.332Z,16.60
2022-12-01T01:12:04.137Z,16.60
2022-12-01T01:14:30.805Z,16.60
2022-12-01T01:16:57.513Z,16.60
2022-12-01T01:19:24.232Z,16.60
2022-12-01T01:21:50.853Z,16.60
2022-12-01T01:24:17.567Z,16.60
2022-12-01T01:26:44.315Z,16.60
2022-12-01T01:29:11.064Z,16.60
2022-12-01T01:31:37.790Z,16.60
2022-12-01T01:34:04.918Z,16.70
2022-12-01T01:36:31.789Z,16.70
2022-12-01T01:38:58.489Z,16.80
2022-12-01T01:41:25.196Z,16.80
2022-12-01T01:43:51.884Z,16.90
2022-12-01T01:46:22.999Z,16.90
2022-12-01T01:48:52.525Z,16.80
2022-12-01T01:51:42.478Z,16.80
2022-12-01T01:54:20.515Z,16.80
2022-12-01T01:56:48.887Z,16.80
2022-12-01T01:59:18.008Z,16.80
2022-12-01T02:01:45.700Z,16.80
2022-12-01T02:04:12.905Z,16.80
2022-12-01T02:06:39.594Z,16.80
2022-12-01T02:09:06.337Z,16.80
2022-12-01T02:11:51.833Z,16.80
2022-12-01T02:14:30.675Z,16.80
2022-12-01T02:17:04.290Z,16.70
2022-12-01T02:19:34.044Z,16.70
2022-12-01T02:22:03.722Z,16.70
2022-12-01T02:24:30.354Z,16.70
2022-12-01T02:27:01.393Z,16.70
2022-12-01T02:29:31.324Z,16.60
2022-12-01T02:32:04.401Z,16.70
2022-12-01T02:34:50.036Z,16.70
2022-12-01T02:37:16.678Z,16.70
2022-12-01T02:39:54.553Z,16.80
2022-12-01T02:42:50.176Z,16.60
2022-12-01T02:45:35.688Z,16.70
2022-12-01T02:48:03.762Z,16.60
2022-12-01T02:50:32.618Z,16.60
2022-12-01T02:53:00.497Z,16.60
2022-12-01T02:55:27.308Z,16.60
2022-12-01T02:57:54.010Z,16.60
2022-12-01T03:00:20.764Z,16.60
2022-12-01T03:02:52.598Z,16.60
2022-12-01T03:05:24.356Z,16.60
2022-12-01T03:08:13.856Z,16.60
2022-12-01T03:10:49.730Z,16.60
2022-12-01T03:13:29.630Z,16.60
2022-12-01T03:16:08.698Z,16.60
2022-12-01T03:18:35.427Z,16.60
2022-12-01T03:21:22.387Z,16.60
2022-12-01T03:23:51.964Z,16.60
2022-12-01T03:26:20.050Z,16.60
2022-12-01T03:28:50.356Z,16.60
2022-12-01T03:31:20.216Z,16.60
2022-12-01T03:33:49.763Z,16.60
2022-12-01T03:36:39.798Z,16.60
2022-12-01T03:39:08.756Z,16.60
2022-12-01T03:41:37.986Z,16.60
2022-12-01T03:44:08.061Z,16.60
2022-12-01T03:46:41.308Z,16.60
2022-12-01T03:49:09.728Z,16.60
2022-12-01T03:51:50.710Z,16.60
2022-12-01T03:54:47.334Z,16.60
2022-12-01T03:57:17.344Z,16.60
2022-12-01T03:59:45.351Z,16.60
2022-12-01T04:02:12.452Z,16.60
2022-12-01T04:04:39.182Z,16.60
2022-12-01T04:07:06.028Z,16.60
2022-12-01T04:09:32.737Z,16.60
2022-12-01T04:12:18.179Z,16.60
2022-12-01T04:14:44.824Z,16.60
2022-12-01T04:17:11.667Z,16.60
2022-12-01T04:19:38.351Z,16.60
2022-12-01T04:22:05.037Z,16.60
2022-12-01T04:24:31.712Z,16.60
2022-12-01T04:26:58.365Z,16.60
2022-12-01T04:29:25.041Z,16.60
2022-12-01T04:31:51.835Z,16.60
2022-12-01T04:34:18.570Z,16.60
2022-12-01T04:36:45.262Z,16.60
2022-12-01T04:39:11.952Z,16.60
2022-12-01T04:41:38.638Z,16.60
2022-12-01T04:44:05.623Z,16.60
2022-12-01T04:46:32.402Z,16.60
2022-12-01T04:48:59.086Z,16.60
2022-12-01T04:51:25.906Z,16.60
2022-12-01T04:53:52.650Z,16.60
2022-12-01T04:56:19.369Z,16.60
2022-12-01T04:58:46.240Z,16.60
2022-12-01T05:01:14.045Z,16.60
2022-12-01T05:03:41.341Z,16.60
2022-12-01T05:06:09.998Z,16.60
2022-12-01T05:08:37.105Z,16.60
2022-12-01T05:11:05.074Z,16.60
2022-12-01T05:13:31.758Z,16.60
2022-12-01T05:16:25.058Z,16.60
2022-12-01T05:19:13.256Z,16.70
2022-12-01T05:21:40.694Z,16.80
2022-12-01T05:24:08.236Z,16.80
2022-12-01T05:26:35.274Z,16.90
2022-12-01T05:29:02.081Z,16.90
2022-12-01T05:31:29.111Z,16.90
2022-12-01T05:33:55.808Z,16.90
2022-12-01T05:36:22.805Z,16.90
2022-12-01T05:38:49.569Z,16.80
2022-12-01T05:41:16.331Z,16.80
2022-12-01T05:43:43.046Z,16.80
2022-12-01T05:46:09.762Z,16.80
2022-12-01T05:48:36.517Z,16.80
2022-12-01T05:51:10.387Z,16.80
2022-12-01T05:53:37.194Z,16.80
2022-12-01T05:56:04.156Z,16.80
2022-12-01T05:58:30.810Z,16.80
2022-12-01T06:00:57.824Z,16.70
2022-12-01T06:03:24.690Z,16.70
2022-12-01T06:05:51.665Z,16.70
2022-12-01T06:08:18.725Z,16.70
2022-12-01T06:10:46.035Z,16.70
2022-12-01T06:13:12.746Z,16.70
2022-12-01T06:15:39.470Z,16.70
2022-12-01T06:18:06.207Z,16.80
2022-12-01T06:20:32.877Z,16.70
2022-12-01T06:22:59.675Z,16.80
2022-12-01T06:25:26.353Z,16.80
2022-12-01T06:27:57.425Z,16.80
2022-12-01T06:30:24.242Z,16.90
2022-12-01T06:32:50.910Z,16.90
2022-12-01T06:35:17.698Z,16.80
2022-12-01T06:37:44.472Z,16.80
2022-12-01T06:40:11.466Z,16.80
2022-12-01T06:42:38.154Z,16.80
2022-12-01T06:45:05.435Z,16.80
2022-12-01T06:47:32.116Z,16.70
2022-12-01T06:49:58.784Z,16.70
2022-12-01T06:52:25.465Z,16.60
2022-12-01T06:54:52.089Z,16.60
2022-12-01T06:57:19.077Z,16.60
2022-12-01T06:59:46.124Z,16.60
2022-12-01T07:02:13.614Z,16.60
2022-12-01T07:04:40.345Z,16.60
2022-12-01T07:07:07.021Z,16.70
2022-12-01T07:09:33.924Z,16.70
2022-12-01T07:12:00.662Z,16.70
2022-12-01T07:14:27.834Z,16.70
2022-12-01T07:16:54.782Z,16.70
2022-12-01T07:19:21.625Z,16.70
2022-12-01T07:21:48.300Z,16.70
2022-12-01T07:24:14.992Z,16.70
2022-12-01T07:26:42.126Z,16.70
2022-12-01T07:29:09.433Z,16.40
2022-12-01T07:31:36.783Z,16.70
2022-12-01T07:34:03.560Z,16.80
2022-12-01T07:36:30.246Z,16.70
2022-12-01T07:38:56.961Z,16.80
2022-12-01T07:41:23.634Z,16.80
2022-12-01T07:43:50.656Z,16.80
2022-12-01T07:46:22.609Z,16.90
2022-12-01T07:48:50.378Z,16.90
2022-12-01T07:51:17.224Z,17.00
2022-12-01T07:53:47.732Z,17.00
2022-12-01T07:56:14.453Z,17.00
2022-12-01T07:58:41.317Z,17.00
2022-12-01T08:01:15.346Z,16.90
2022-12-01T08:03:42.543Z,16.90
2022-12-01T08:06:09.858Z,16.90
2022-12-01T08:08:37.254Z,16.90
2022-12-01T08:11:08.197Z,16.90
2022-12-01T08:13:34.987Z,16.80
2022-12-01T08:16:05.501Z,16.80
2022-12-01T08:18:34.133Z,16.80
2022-12-01T08:21:00.797Z,16.80
2022-12-01T08:23:27.522Z,16.80
2022-12-01T08:25:54.285Z,16.80
2022-12-01T08:28:21.325Z,16.70
2022-12-01T08:30:48.107Z,16.70
2022-12-01T08:33:14.839Z,16.70
2022-12-01T08:35:41.542Z,16.70
2022-12-01T08:38:08.949Z,16.70
2022-12-01T08:40:35.626Z,16.70
2022-12-01T08:43:02.304Z,16.70
2022-12-01T08:45:29.050Z,16.70
2022-12-01T08:47:59.906Z,16.80
2022-12-01T08:50:27.273Z,16.80
2022-12-01T08:52:54.138Z,16.80
2022-12-01T08:55:21.252Z,16.80
2022-12-01T08:57:47.900Z,16.80
2022-12-01T09:00:14.973Z,16.80
2022-12-01T09:02:41.652Z,16.80
2022-12-01T09:05:08.437Z,16.80
2022-12-01T09:07:35.182Z,16.80
2022-12-01T09:10:01.845Z,16.80
2022-12-01T09:12:28.944Z,16.80
2022-12-01T09:14:55.578Z,16.80
2022-12-01T09:17:23.671Z,16.80
2022-12-01T09:19:50.541Z,16.90
2022-12-01T09:22:17.541Z,16.80
2022-12-01T09:24:44.200Z,16.80
2022-12-01T09:27:10.896Z,16.80
2022-12-01T09:29:37.533Z,16.80
2022-12-01T09:32:04.265Z,16.80
2022-12-01T09:34:31.005Z,16.80
2022-12-01T09:36:58.543Z,16.80
2022-12-01T09:39:25.712Z,16.80
2022-12-01T09:42:12.923Z,16.80
2022-12-01T09:44:42.567Z,16.80
2022-12-01T09:47:10.064Z,16.80
2022-12-01T09:49:43.864Z,16.80
2022-12-01T09:52:15.450Z,16.80
2022-12-01T09:54:42.349Z,16.80
2022-12-01T09:57:26.964Z,16.80
2022-12-01T09:59:54.651Z,16.80
2022-12-01T10:02:27.700Z,16.90
2022-12-01T10:04:55.951Z,16.90
2022-12-01T10:07:25.270Z,16.90
2022-12-01T10:09:54.788Z,17.00
2022-12-01T10:12:27.855Z,17.00
2022-12-01T10:14:58.506Z,17.00
2022-12-01T10:17:43.719Z,16.90
2022-12-01T10:20:21.691Z,16.90
2022-12-01T10:22:51.680Z,16.90
2022-12-01T10:25:22.906Z,16.80
2022-12-01T10:27:49.540Z,16.80
2022-12-01T10:30:18.534Z,16.80
2022-12-01T10:32:56.271Z,16.80
2022-12-01T10:35:29.197Z,16.80
2022-12-01T10:38:01.078Z,16.80
2022-12-01T10:40:28.701Z,16.80
2022-12-01T10:42:55.430Z,16.80
2022-12-01T10:45:23.601Z,16.80
2022-12-01T10:48:22.748Z,16.80
2022-12-01T10:50:53.748Z,16.80
2022-12-01T10:53:23.215Z,16.80
2022-12-01T10:55:51.750Z,16.80
2022-12-01T10:58:19.180Z,16.80
2022-12-01T11:01:00.010Z,16.80
2022-12-01T11:03:29.117Z,16.80
2022-12-01T11:05:58.198Z,16.80
2022-12-01T11:08:29.278Z,16.80
2022-12-01T11:10:56.693Z,16.80
2022-12-01T11:13:25.025Z,16.80
2022-12-01T11:15:53.217Z,16.80
2022-12-01T11:18:38.842Z,16.80
2022-12-01T11:21:15.757Z,16.80
2022-12-01T11:23:46.858Z,16.70
2022-12-01T11:26:20.795Z,16.80
2022-12-01T11:28:52.753Z,16.80
2022-12-01T11:31:20.637Z,16.80
2022-12-01T11:33:52.390Z,16.80
2022-12-01T11:36:32.031Z,16.80
2022-12-01T11:39:00.380Z,16.70
2022-12-01T11:41:29.921Z,16.70
2022-12-01T11:44:01.792Z,16.80
2022-12-01T11:46:32.228Z,16.80
2022-12-01T11:48:59.576Z,16.80
2022-12-01T11:51:37.688Z,16.80
2022-12-01T11:54:22.054Z,16.80
2022-12-01T11:56:56.073Z,16.80
2022-12-01T11:59:36.515Z,16.80
2022-12-01T12:02:22.302Z,16.80
2022-12-01T12:04:49.045Z,16.80
2022-12-01T12:07:34.308Z,16.80
2022-12-01T12:10:19.792Z,16.80
2022-12-01T12:12:52.902Z,16.70
2022-12-01T12:15:19.697Z,16.80
2022-12-01T12:17:49.399Z,16.70
2022-12-01T12:20:27.583Z,16.70
2022-12-01T12:23:00.319Z,16.70
2022-12-01T12:25:45.874Z,16.70
2022-12-01T12:28:26.513Z,16.70
2022-12-01T12:31:12.272Z,16.70
2022-12-01T12:33:57.898Z,16.70
2022-12-01T12:36:43.486Z,16.70
2022-12-01T12:39:32.805Z,16.70
2022-12-01T12:42:01.695Z,16.70
2022-12-01T12:44:37.282Z,16.80
2022-12-01T12:47:07.453Z,16.80
2022-12-01T12:49:46.594Z,16.90
2022-12-01T12:52:18.547Z,16.90
2022-12-01T12:54:50.584Z,17.00
2022-12-01T12:57:27.442Z,17.00
2022-12-01T12:59:54.080Z,17.00
2022-12-01T13:02:44.085Z,17.00
2022-12-01T13:05:20.663Z,16.90
2022-12-01T13:07:51.446Z,16.90
2022-12-01T13:10:27.068Z,16.90
2022-12-01T13:13:17.076Z,16.90
2022-12-01T13:15:44.117Z,16.90
2022-12-01T13:18:16.222Z,16.90
2022-12-01T13:20:43.378Z,16.90
2022-12-01T13:23:14.709Z,16.90
2022-12-01T13:25:42.338Z,16.80
2022-12-01T13:28:17.355Z,16.90
2022-12-01T13:30:58.296Z,16.90
2022-12-01T13:33:25.163Z,16.80
2022-12-01T13:36:22.581Z,16.80
2022-12-01T13:38:40.203Z,16.80
2022-12-01T13:41:20.409Z,16.80
2022-12-01T13:43:56.055Z,16.80
2022-12-01T13:46:24.275Z,16.80
2022-12-01T13:48:52.529Z,16.80
2022-12-01T13:51:19.245Z,16.80
2022-12-01T13:54:09.257Z,16.80
2022-12-01T13:56:39.413Z,16.80
2022-12-01T13:59:27.501Z,16.80
2022-12-01T14:02:06.873Z,16.80
2022-12-01T14:04:33.712Z,16.80
2022-12-01T14:07:14.002Z,16.80
2022-12-01T14:09:41.834Z,16.80
2022-12-01T14:12:11.282Z,16.80
2022-12-01T14:14:39.990Z,16.80
2022-12-01T14:17:12.380Z,16.80
2022-12-01T14:19:42.012Z,16.80
2022-12-01T14:22:28.656Z,16.80
2022-12-01T14:24:55.449Z,16.80
2022-12-01T14:27:38.878Z,16.80
2022-12-01T14:30:24.357Z,16.80
2022-12-01T14:32:51.038Z,16.80
2022-12-01T14:35:17.973Z,16.80
2022-12-01T14:37:47.565Z,16.80
2022-12-01T14:40:17.648Z,16.80
2022-12-01T14:43:05.516Z,16.80
2022-12-01T14:45:40.118Z,16.80
2022-12-01T14:48:12.689Z,16.80
2022-12-01T14:50:46.446Z,16.80
2022-12-01T14:53:27.833Z,16.80
2022-12-01T14:55:56.606Z,16.80
2022-12-01T14:58:26.016Z,16.80
2022-12-01T15:00:56.517Z,16.80
2022-12-01T15:03:28.934Z,16.80
2022-12-01T15:05:58.512Z,16.80
2022-12-01T15:08:42.076Z,16.80
2022-12-01T15:11:21.725Z,16.80
2022-12-01T15:13:50.101Z,16.80
2022-12-01T15:16:18.112Z,16.80
2022-12-01T15:18:44.881Z,16.80
2022-12-01T15:21:31.197Z,16.80
2022-12-01T15:24:05.140Z,16.80
2022-12-01T15:26:36.171Z,16.80
2022-12-01T15:29:12.715Z,16.80
2022-12-01T15:31:39.703Z,16.80
2022-12-01T15:34:09.569Z,16.80
2022-12-01T15:36:37.432Z,16.80
2022-12-01T15:39:07.215Z,16.80
2022-12-01T15:41:35.013Z,16.80
2022-12-01T15:44:03.658Z,16.80
2022-12-01T15:46:31.569Z,16.80
2022-12-01T15:49:07.644Z,16.80
2022-12-01T15:51:34.759Z,16.80
2022-12-01T15:54:01.767Z,16.80
2022-12-01T15:56:36.322Z,16.80
2022-12-01T15:59:12.072Z,16.80
2022-12-01T16:01:39.691Z,16.80
2022-12-01T16:04:14.659Z,16.80
2022-12-01T16:06:41.700Z,16.80
2022-12-01T16:09:27.180Z,16.80
2022-12-01T16:12:23.262Z,16.80
2022-12-01T16:14:50.148Z,16.80
2022-12-01T16:17:17.296Z,16.80
2022-12-01T16:19:45.556Z,16.80
2022-12-01T16:22:12.243Z,16.80
2022-12-01T16:24:47.316Z,16.80
2022-12-01T16:27:18.784Z,16.80
2022-12-01T16:29:48.901Z,16.80
2022-12-01T16:32:21.625Z,16.80
2022-12-01T16:34:49.953Z,16.80
2022-12-01T16:37:16.913Z,16.80
2022-12-01T16:39:43.642Z,16.80
2022-12-01T16:42:14.905Z,16.80
2022-12-01T16:44:42.028Z,16.80
2022-12-01T16:47:13.373Z,16.80
2022-12-01T16:49:40.077Z,16.80
2022-12-01T16:52:36.477Z,16.80
2022-12-01T16:54:53.426Z,16.80
2022-12-01T16:57:20.066Z,16.80
2022-12-01T16:59:46.743Z,16.80
2022-12-01T17:02:13.515Z,16.80
2022-12-01T17:04:40.231Z,16.80
2022-12-01T17:07:06.925Z,16.80
2022-12-01T17:09:33.589Z,16.80
2022-12-01T17:12:00.264Z,16.80
2022-12-01T17:14:26.960Z,16.90
2022-12-01T17:16:53.649Z,16.90
2022-12-01T17:19:20.443Z,17.00
2022-12-01T17:21:47.193Z,17.00
2022-12-01T17:24:18.670Z,17.10
2022-12-01T17:26:45.780Z,17.00
2022-12-01T17:29:12.414Z,17.00
2022-12-01T17:31:39.162Z,17.00
2022-12-01T17:34:05.900Z,17.00
2022-12-01T17:36:32.572Z,17.00
2022-12-01T17:38:59.315Z,17.00
2022-12-01T17:41:32.200Z,16.90
2022-12-01T17:44:01.452Z,17.00
2022-12-01T17:46:28.265Z,16.90
2022-12-01T17:48:54.965Z,16.90
2022-12-01T17:51:21.738Z,16.90
2022-12-01T17:53:48.573Z,16.90
2022-12-01T17:56:16.234Z,16.90
2022-12-01T17:58:43.204Z,16.90
2022-12-01T18:01:15.037Z,16.90
2022-12-01T18:03:42.129Z,16.90
2022-12-01T18:06:09.001Z,16.90
2022-12-01T18:08:36.949Z,16.90
2022-12-01T18:11:07.796Z,16.90
2022-12-01T18:13:38.436Z,16.90
2022-12-01T18:16:06.279Z,16.90
2022-12-01T18:18:32.984Z,16.90
2022-12-01T18:20:59.659Z,16.90
2022-12-01T18:23:27.147Z,16.90
2022-12-01T18:25:53.866Z,16.90
2022-12-01T18:28:20.512Z,16.90
2022-12-01T18:30:47.272Z,16.90
2022-12-01T18:33:13.970Z,16.90
2022-12-01T18:35:44.576Z,16.90
2022-12-01T18:38:11.250Z,16.90
2022-12-01T18:40:38.401Z,16.90
2022-12-01T18:43:05.125Z,16.90
2022-12-01T18:45:31.800Z,16.90
2022-12-01T18:47:58.487Z,16.90
2022-12-01T18:50:25.198Z,16.90
2022-12-01T18:52:51.991Z,16.90
2022-12-01T18:55:18.827Z,16.90
2022-12-01T18:57:45.616Z,16.90
2022-12-01T19:00:12.648Z,16.90
2022-12-01T19:02:39.374Z,16.90
2022-12-01T19:05:06.133Z,16.90
2022-12-01T19:07:32.875Z,16.90
2022-12-01T19:09:59.642Z,16.90
2022-12-01T19:12:26.364Z,16.90
2022-12-01T19:14:54.244Z,16.90
2022-12-01T19:17:20.966Z,16.90
2022-12-01T19:19:47.761Z,16.90
2022-12-01T19:22:14.571Z,16.90
2022-12-01T19:24:44.756Z,16.90
2022-12-01T19:27:13.979Z,17.00
2022-12-01T19:29:40.734Z,17.10
2022-12-01T19:32:07.593Z,17.20
2022-12-01T19:34:34.702Z,17.20
2022-12-01T19:37:01.472Z,17.30
2022-12-01T19:39:28.233Z,17.30
2022-12-01T19:41:56.326Z,17.20
2022-12-01T19:44:23.017Z,17.20
2022-12-01T19:46:49.790Z,17.10
2022-12-01T19:49:16.554Z,17.20
2022-12-01T19:51:43.393Z,17.10
2022-12-01T19:54:14.454Z,17.10
2022-12-01T19:56:41.266Z,17.10
2022-12-01T19:59:08.145Z,17.00
2022-12-01T20:01:34.929Z,17.10
2022-12-01T20:04:01.720Z,17.10
2022-12-01T20:06:30.081Z,17.00
2022-12-01T20:08:58.335Z,17.00
2022-12-01T20:11:25.309Z,17.00
2022-12-01T20:13:52.490Z,17.00
2022-12-01T20:16:20.494Z,17.00
2022-12-01T20:18:47.394Z,17.00
2022-12-01T20:21:17.108Z,17.00
2022-12-01T20:23:44.438Z,17.00
2022-12-01T20:26:11.198Z,17.00
2022-12-01T20:28:38.362Z,17.00
2022-12-01T20:31:09.414Z,17.00
2022-12-01T20:33:36.197Z,17.00
2022-12-01T20:36:03.241Z,17.00
2022-12-01T20:38:29.983Z,17.00
2022-12-01T20:40:56.697Z,17.00
2022-12-01T20:43:23.494Z,17.00
2022-12-01T20:45:50.244Z,17.00
2022-12-01T20:48:17.096Z,17.00
2022-12-01T20:50:44.345Z,17.00
2022-12-01T20:53:11.071Z,17.00
2022-12-01T20:55:38.171Z,17.00
2022-12-01T20:58:05.352Z,16.90
2022-12-01T21:00:32.136Z,16.90
2022-12-01T21:02:58.932Z,16.90
2022-12-01T21:05:26.023Z,16.90
2022-12-01T21:07:53.430Z,16.90
2022-12-01T21:10:20.465Z,16.90
2022-12-01T21:13:07.991Z,16.90
2022-12-01T21:15:39.720Z,16.90
2022-12-01T21:18:12.333Z,16.90
2022-12-01T21:20:43.128Z,16.90
2022-12-01T21:23:11.055Z,16.90
2022-12-01T21:25:39.097Z,16.90
2022-12-01T21:28:13.684Z,16.90
2022-12-01T21:30:40.502Z,16.90
2022-12-01T21:33:30.415Z,16.90
2022-12-01T21:35:57.343Z,16.90
2022-12-01T21:38:25.241Z,16.90
2022-12-01T21:40:51.995Z,16.80
2022-12-01T21:43:20.618Z,16.90
2022-12-01T21:45:49.986Z,16.90
2022-12-01T21:48:18.344Z,16.90
2022-12-01T21:50:49.380Z,16.80
2022-12-01T21:53:19.944Z,16.80
2022-12-01T21:55:47.812Z,16.90
2022-12-01T21:58:24.472Z,16.90
2022-12-01T22:00:54.788Z,16.90
2022-12-01T22:03:26.035Z,16.80
2022-12-01T22:06:27.716Z,16.80
2022-12-01T22:08:45.624Z,16.80
2022-12-01T22:11:18.698Z,16.90
2022-12-01T22:13:47.454Z,16.80
2022-12-01T22:16:26.288Z,16.80
2022-12-01T22:18:54.773Z,16.80
2022-12-01T22:21:40.218Z,16.80
2022-12-01T22:24:10.002Z,16.90
2022-12-01T22:26:37.334Z,16.80
2022-12-01T22:29:11.979Z,16.80
2022-12-01T22:31:39.414Z,16.80
2022-12-01T22:34:11.398Z,16.80
2022-12-01T22:36:38.086Z,16.80
2022-12-01T22:39:11.392Z,16.80
2022-12-01T22:41:38.155Z,16.80
2022-12-01T22:44:04.889Z,16.80
2022-12-01T22:46:32.949Z,16.80
2022-12-01T22:49:19.432Z,16.80
2022-12-01T22:51:47.953Z,16.80
2022-12-01T22:54:16.437Z,16.80
2022-12-01T22:56:44.543Z,16.80
2022-12-01T22:59:43.869Z,16.80
2022-12-01T23:02:19.249Z,16.80
2022-12-01T23:04:47.624Z,16.80
2022-12-01T23:07:31.454Z,16.80
2022-12-01T23:10:04.579Z,16.80
2022-12-01T23:12:32.505Z,16.80
2022-12-01T23:15:00.717Z,16.80
2022-12-01T23:17:28.619Z,16.80
2022-12-01T23:20:02.595Z,16.80
2022-12-01T23:22:29.297Z,16.90
2022-12-01T23:24:56.485Z,17.00
2022-12-01T23:27:23.194Z,17.00
2022-12-01T23:29:49.914Z,17.00
2022-12-01T23:32:17.498Z,17.10
2022-12-01T23:34:44.185Z,17.10
2022-12-01T23:37:40.335Z,17.10
2022-12-01T23:40:19.985Z,17.00
2022-12-01T23:42:46.712Z,17.00
2022-12-01T23:45:19.381Z,17.00
2022-12-01T23:47:46.266Z,17.00
2022-12-01T23:50:16.412Z,17.00
2022-12-01T23:52:44.288Z,17.00
2022-12-01T23:55:16.742Z,17.00
2022-12-01T23:57:43.553Z,17.00
